createdAt,value
2019-05-25T00:00:32.341Z,9.23
2019-05-25T00:05:28.171Z,9.93
2019-05-25T00:10:23.883Z,9.83
2019-05-25T00:15:19.604Z,10.77
2019-05-25T00:20:15.297Z,9.83
2019-05-25T00:25:11.437Z,10.77
2019-05-25T00:30:07.700Z,9.90
2019-05-25T00:35:04.211Z,10.70
2019-05-25T00:40:00.061Z,11.17
2019-05-25T00:44:55.771Z,11.23
2019-05-25T00:49:51.691Z,10.73
2019-05-25T00:54:47.389Z,10.23
2019-05-25T00:59:43.107Z,11.37
2019-05-25T01:04:38.808Z,10.20
2019-05-25T01:09:34.887Z,11.10
2019-05-25T01:14:30.694Z,11.20
2019-05-25T01:19:26.509Z,10.70
2019-05-25T01:24:22.498Z,11.17
2019-05-25T01:29:18.225Z,10.73
2019-05-25T01:34:13.939Z,11.23
2019-05-25T01:39:09.638Z,10.93
2019-05-25T01:44:05.351Z,10.63
2019-05-25T01:49:01.069Z,11.03
2019-05-25T01:53:56.805Z,11.00
2019-05-25T01:58:52.606Z,12.10
2019-05-25T02:03:48.322Z,11.27
2019-05-25T02:08:44.038Z,12.43
2019-05-25T02:13:39.833Z,12.30
2019-05-25T02:18:35.927Z,11.13
2019-05-25T02:23:31.731Z,11.73
2019-05-25T02:28:27.596Z,11.13
2019-05-25T02:33:23.557Z,11.40
2019-05-25T02:38:19.526Z,10.93
2019-05-25T02:43:15.507Z,12.07
2019-05-25T02:48:11.470Z,11.43
2019-05-25T02:53:07.446Z,11.50
2019-05-25T02:58:03.425Z,11.77
2019-05-25T03:02:59.460Z,11.20
2019-05-25T03:07:55.526Z,11.73
2019-05-25T03:12:52.442Z,11.17
2019-05-25T03:17:48.632Z,11.83
2019-05-25T03:22:44.722Z,13.30
2019-05-25T03:27:40.670Z,12.60
2019-05-25T03:32:36.954Z,11.77
2019-05-25T03:37:32.976Z,11.73
2019-05-25T03:42:28.795Z,12.43
2019-05-25T03:47:24.662Z,11.87
2019-05-25T03:52:20.521Z,11.67
2019-05-25T03:57:16.396Z,11.73
2019-05-25T04:02:12.295Z,11.80
2019-05-25T04:07:08.623Z,12.20
2019-05-25T04:12:04.493Z,12.33
2019-05-25T04:17:00.366Z,11.97
2019-05-25T04:21:56.333Z,11.87
2019-05-25T04:26:52.316Z,12.57
2019-05-25T04:31:48.529Z,11.60
2019-05-25T04:36:44.516Z,11.50
2019-05-25T04:41:40.815Z,11.60
2019-05-25T04:46:36.676Z,11.97
2019-05-25T04:51:32.637Z,12.40
2019-05-25T04:56:39.086Z,13.00
2019-05-25T05:01:26.367Z,12.30
2019-05-25T05:06:22.385Z,11.03
2019-05-25T05:11:18.251Z,11.83
2019-05-25T05:16:14.420Z,12.90
2019-05-25T05:21:10.377Z,12.57
2019-05-25T05:26:06.240Z,12.33
2019-05-25T05:31:02.106Z,12.53
2019-05-25T05:35:58.938Z,12.70
2019-05-25T05:40:56.343Z,12.30
2019-05-25T05:45:53.711Z,12.07
2019-05-25T05:50:51.673Z,11.43
2019-05-25T05:55:47.545Z,12.07
2019-05-25T06:00:43.423Z,11.90
2019-05-25T06:05:39.420Z,10.73
2019-05-25T06:10:35.333Z,10.27
2019-05-25T06:15:31.258Z,11.40
2019-05-25T06:20:27.122Z,11.00
2019-05-25T06:25:23.099Z,11.13
2019-05-25T06:30:19.630Z,11.30
2019-05-25T06:35:16.566Z,11.90
2019-05-25T06:40:12.478Z,12.33
2019-05-25T06:45:08.907Z,12.13
2019-05-25T06:50:05.666Z,12.30
2019-05-25T06:55:01.935Z,12.53
2019-05-25T06:59:57.990Z,11.93
2019-05-25T07:04:54.206Z,11.60
2019-05-25T07:09:50.060Z,10.93
2019-05-25T07:14:45.937Z,10.85
2019-05-25T07:19:41.903Z,11.08
2019-05-25T07:24:38.275Z,11.83
2019-05-25T07:29:34.142Z,9.33
2019-05-25T07:34:30.097Z,8.98
2019-05-25T07:39:26.097Z,7.55
2019-05-25T07:44:22.302Z,7.30
2019-05-25T07:49:18.172Z,7.92
2019-05-25T07:54:14.434Z,8.00
2019-05-25T07:59:10.444Z,6.33
2019-05-25T08:04:06.337Z,6.72
2019-05-25T08:09:04.517Z,6.03
2019-05-25T08:14:00.894Z,5.25
2019-05-25T08:18:56.790Z,5.83
2019-05-25T08:23:52.745Z,6.00
2019-05-25T08:28:49.076Z,6.10
2019-05-25T08:33:45.051Z,6.40
2019-05-25T08:38:41.148Z,6.15
2019-05-25T08:43:37.202Z,6.55
2019-05-25T08:48:33.093Z,8.83
2019-05-25T08:53:40.548Z,6.60
2019-05-25T08:58:27.063Z,6.70
2019-05-25T09:03:22.940Z,5.90
2019-05-25T09:08:18.811Z,5.47
2019-05-25T09:13:14.740Z,5.45
2019-05-25T09:18:10.718Z,6.10
2019-05-25T09:23:07.027Z,7.17
2019-05-25T09:28:02.997Z,6.40
2019-05-25T09:32:58.976Z,8.90
2019-05-25T09:37:54.842Z,6.60
2019-05-25T09:42:50.967Z,6.17
2019-05-25T09:47:46.902Z,6.40
2019-05-25T09:52:42.876Z,7.22
2019-05-25T09:57:41.527Z,6.87
2019-05-25T10:02:36.825Z,7.58
2019-05-25T10:07:32.699Z,5.70
2019-05-25T10:12:28.566Z,11.00
2019-05-25T10:17:24.635Z,8.85
2019-05-25T10:22:20.568Z,5.00
2019-05-25T10:27:16.447Z,5.85
2019-05-25T10:32:12.420Z,14.47
2019-05-25T10:37:08.278Z,5.08
2019-05-25T10:42:04.380Z,5.28
2019-05-25T10:47:00.276Z,5.72
2019-05-25T10:51:56.630Z,5.90
2019-05-25T10:56:52.875Z,5.95
2019-05-25T11:01:48.859Z,6.70
2019-05-25T11:07:04.654Z,12.95
2019-05-25T11:12:00.640Z,5.53
2019-05-25T11:16:56.512Z,9.08
2019-05-25T11:21:52.374Z,11.05
2019-05-25T11:26:48.570Z,8.75
2019-05-25T11:31:54.026Z,7.30
2019-05-25T11:36:42.184Z,6.72
2019-05-25T11:41:38.208Z,5.90
2019-05-25T11:46:34.187Z,17.50
2019-05-25T11:51:30.062Z,5.30
2019-05-25T11:56:27.108Z,5.53
2019-05-25T12:01:23.212Z,5.50
2019-05-25T12:06:19.094Z,4.97
2019-05-25T12:11:15.047Z,4.75
2019-05-25T12:16:11.109Z,4.35
2019-05-25T12:21:07.078Z,4.00
2019-05-25T12:26:03.128Z,4.72
2019-05-25T12:30:58.954Z,3.72
2019-05-25T12:35:54.927Z,9.93
2019-05-25T12:40:53.549Z,3.70
2019-05-25T12:45:48.677Z,3.00
2019-05-25T12:50:44.643Z,3.00
2019-05-25T12:55:40.642Z,3.08
2019-05-25T13:00:36.596Z,3.62
2019-05-25T13:05:34.505Z,5.72
2019-05-25T13:10:30.482Z,4.45
2019-05-25T13:15:26.342Z,3.67
2019-05-25T13:20:22.218Z,3.40
2019-05-25T13:25:18.169Z,3.45
2019-05-25T13:30:14.963Z,8.05
2019-05-25T13:35:11.042Z,3.25
2019-05-25T13:40:07.634Z,10.05
2019-05-25T13:45:06.924Z,3.12
2019-05-25T13:50:05.037Z,21.35
2019-05-25T13:55:01.008Z,4.95
2019-05-25T13:59:56.871Z,4.65
2019-05-25T14:04:52.765Z,6.72
2019-05-25T14:09:48.617Z,4.75
2019-05-25T14:14:44.847Z,4.90
2019-05-25T14:19:41.618Z,14.45
2019-05-25T14:24:37.484Z,5.12
2019-05-25T14:29:33.777Z,4.40
2019-05-25T14:34:29.771Z,4.50
2019-05-25T14:39:25.667Z,4.17
2019-05-25T14:44:21.513Z,5.00
2019-05-25T14:49:17.367Z,4.65
2019-05-25T14:54:13.235Z,4.28
2019-05-25T14:59:09.197Z,4.40
2019-05-25T15:04:05.178Z,4.20
2019-05-25T15:09:01.133Z,4.03
2019-05-25T15:13:57.032Z,3.92
2019-05-25T15:18:53.281Z,4.72
2019-05-25T15:23:49.156Z,5.35
2019-05-25T15:28:45.259Z,5.37
2019-05-25T15:33:41.249Z,5.53
2019-05-25T15:38:37.118Z,7.47
2019-05-25T15:43:33.067Z,7.62
2019-05-25T15:48:29.059Z,7.67
2019-05-25T15:53:25.028Z,8.93
2019-05-25T15:58:20.993Z,8.30
2019-05-25T16:03:17.379Z,8.43
2019-05-25T16:08:13.354Z,6.05
2019-05-25T16:13:09.334Z,5.05
2019-05-25T16:18:05.282Z,5.00
2019-05-25T16:23:01.153Z,5.17
2019-05-25T16:27:57.237Z,5.70
2019-05-25T16:33:12.363Z,6.22
2019-05-25T16:37:51.102Z,7.80
2019-05-25T16:42:47.500Z,9.37
2019-05-25T16:47:43.470Z,11.20
2019-05-25T16:52:39.460Z,11.40
2019-05-25T16:57:35.454Z,9.83
2019-05-25T17:02:31.707Z,9.10
2019-05-25T17:07:27.937Z,9.73
2019-05-25T17:12:23.819Z,9.17
2019-05-25T17:17:20.154Z,9.13
2019-05-25T17:22:16.156Z,9.35
2019-05-25T17:27:12.194Z,9.30
2019-05-25T17:32:08.187Z,9.00
2019-05-25T17:37:04.168Z,10.77
2019-05-25T17:42:00.140Z,10.57
2019-05-25T17:46:56.140Z,10.05
2019-05-25T17:51:52.622Z,10.23
2019-05-25T17:56:48.647Z,11.27
2019-05-25T18:01:44.623Z,11.53
2019-05-25T18:06:40.640Z,11.80
2019-05-25T18:11:36.617Z,12.47
2019-05-25T18:16:32.500Z,11.53
2019-05-25T18:21:28.416Z,11.90
2019-05-25T18:26:24.360Z,11.63
2019-05-25T18:31:20.579Z,11.60
2019-05-25T18:36:16.504Z,11.93
2019-05-25T18:41:12.832Z,11.07
2019-05-25T18:46:09.296Z,10.63
2019-05-25T18:51:05.281Z,11.70
2019-05-25T18:56:01.771Z,11.53
2019-05-25T19:00:57.751Z,13.23
2019-05-25T19:05:53.632Z,11.50
2019-05-25T19:10:49.890Z,11.47
2019-05-25T19:15:45.880Z,14.17
2019-05-25T19:20:41.846Z,13.27
2019-05-25T19:25:37.700Z,12.73
2019-05-25T19:30:33.569Z,13.10
2019-05-25T19:35:29.530Z,13.87
2019-05-25T19:40:25.489Z,15.77
2019-05-25T19:45:21.499Z,16.07
2019-05-25T19:50:17.976Z,16.50
2019-05-25T19:55:14.890Z,16.03
2019-05-25T20:00:11.097Z,16.30
2019-05-25T20:05:16.190Z,14.87
2019-05-25T20:10:06.248Z,16.30
2019-05-25T20:15:02.607Z,17.13
2019-05-25T20:19:58.537Z,17.37
2019-05-25T20:24:54.403Z,16.77
2019-05-25T20:29:50.856Z,16.00
2019-05-25T20:34:46.721Z,15.57
2019-05-25T20:39:42.687Z,17.90
2019-05-25T20:44:38.564Z,17.13
2019-05-25T20:49:34.426Z,15.27
2019-05-25T20:54:30.402Z,14.30
2019-05-25T20:59:26.385Z,14.93
2019-05-25T21:04:22.298Z,16.03
2019-05-25T21:09:18.278Z,16.70
2019-05-25T21:14:14.494Z,18.97
2019-05-25T21:19:10.584Z,18.07
2019-05-25T21:24:06.705Z,18.83
2019-05-25T21:29:02.686Z,18.77
2019-05-25T21:33:58.661Z,18.07
2019-05-25T21:38:54.532Z,17.67
2019-05-25T21:43:50.426Z,16.33
2019-05-25T21:48:46.390Z,15.33
2019-05-25T21:53:42.258Z,15.53
2019-05-25T21:58:38.255Z,15.17
2019-05-25T22:03:34.218Z,15.30
2019-05-25T22:08:30.180Z,14.23
2019-05-25T22:13:28.802Z,13.67
2019-05-25T22:18:24.480Z,13.93
2019-05-25T22:23:20.443Z,16.67
2019-05-25T22:28:16.336Z,17.07
2019-05-25T22:33:12.290Z,17.80
2019-05-25T22:38:08.164Z,17.10
2019-05-25T22:43:04.031Z,16.13
2019-05-25T22:48:00.007Z,14.70
2019-05-25T22:52:55.880Z,16.50
2019-05-25T22:57:51.951Z,15.17
2019-05-25T23:02:47.942Z,16.50
2019-05-25T23:07:43.823Z,16.83
2019-05-25T23:12:39.716Z,16.63
2019-05-25T23:17:36.247Z,15.83
2019-05-25T23:22:32.409Z,16.47
2019-05-25T23:27:28.216Z,16.07
2019-05-25T23:32:23.941Z,15.47
2019-05-25T23:37:19.654Z,14.80
2019-05-25T23:42:15.367Z,14.03
2019-05-25T23:47:11.075Z,14.07
2019-05-25T23:52:07.153Z,14.67
2019-05-25T23:57:03.320Z,14.83
